Time;durP1;ratioP1;P1;durP2;ratioP2;P2;SDS_P1;SDS_P2;PMS_P1;PMS_P2;Temp;Humidity;BMP_temperature;BMP_pressure;BME280_temperature;BME280_humidity;BME280_pressure;Samples;Min_cycle;Max_cycle;Signal;HPM_P1;HPM_P2
2023/02/09 00:00:51;;;;;;;;;;;;;;;;;;;;;
2023/02/09 00:03:25;;;;;;;36.60;12.50;;;;;;;;;;110033;1281;22255;-75
2023/02/09 00:06:10;;;;;;;;;;;;;;;;;;;;;
2023/02/09 00:08:36;;;;;;;31.60;12.90;;;;;;;;;;110057;1281;22283;-76
2023/02/09 00:14:37;;;;;;;32.80;10.50;;;;;;;;;;110080;1281;21835;-75
2023/02/09 00:17:04;;;;;;;29.30;10.20;;;;;;;;;;110024;1260;22352;-76
2023/02/09 00:19:31;;;;;;;23.10;8.70;;;;;;;;;;109978;1280;22144;-75
2023/02/09 00:21:57;;;;;;;23.70;8.60;;;;;;;;;;110036;1281;22295;-75
2023/02/09 00:24:24;;;;;;;20.90;7.60;;;;;;;;;;110056;1281;22907;-75
2023/02/09 00:26:53;;;;;;;24.10;8.60;;;;;;;;;;110088;1261;22211;-76
2023/02/09 00:29:22;;;;;;;21.70;8.10;;;;;;;;;;110322;1277;22182;-75
2023/02/09 00:31:50;;;;;;;24.20;8.50;;;;;;;;;;110425;1278;22148;-76
2023/02/09 00:34:18;;;;;;;22.90;7.40;;;;;;;;;;110375;1277;22121;-75
2023/02/09 00:36:45;;;;;;;18.20;6.90;;;;;;;;;;110550;1254;22167;-75
2023/02/09 00:39:15;;;;;;;21.50;7.90;;;;;;;;;;110435;1277;22107;-75
2023/02/09 00:44:27;;;;;;;19.60;7.20;;;;;;;;;;110365;1278;22177;-75
2023/02/09 00:46:56;;;;;;;20.50;7.30;;;;;;;;;;110578;1257;22171;-76
2023/02/09 00:49:27;;;;;;;17.40;6.70;;;;;;;;;;110425;1277;22173;-75
2023/02/09 00:52:04;;;;;;;17.30;7.00;;;;;;;;;;110388;1277;22267;-75
2023/02/09 00:54:30;;;;;;;18.70;7.30;;;;;;;;;;110153;1277;22136;-76
2023/02/09 00:57:03;;;;;;;20.00;6.90;;;;;;;;;;110484;1260;22206;-76
2023/02/09 00:59:31;;;;;;;20.40;7.20;;;;;;;;;;110300;1278;22224;-75
2023/02/09 01:02:02;;;;;;;19.00;7.60;;;;;;;;;;110382;1277;22151;-76
2023/02/09 01:04:28;;;;;;;19.20;7.20;;;;;;;;;;110426;1277;21713;-75
2023/02/09 01:06:55;;;;;;;17.10;6.70;;;;;;;;;;110512;1258;22135;-75
2023/02/09 01:09:22;;;;;;;16.10;6.80;;;;;;;;;;110377;1277;22335;-76
2023/02/09 01:11:49;;;;;;;20.80;7.30;;;;;;;;;;110423;1277;22285;-76
2023/02/09 01:14:26;;;;;;;;;;;;;;;;;;;;;
2023/02/09 01:17:45;;;;;;;16.00;6.50;;;;;;;;;;110095;1264;22952;-76
2023/02/09 01:20:12;;;;;;;23.20;7.60;;;;;;;;;;109989;1283;22855;-77
2023/02/09 01:22:39;;;;;;;17.10;7.20;;;;;;;;;;109993;1283;22703;-75
2023/02/09 01:25:06;;;;;;;18.20;7.20;;;;;;;;;;110002;1283;22210;-75
2023/02/09 01:27:33;;;;;;;19.50;7.20;;;;;;;;;;110020;1264;22973;-76
2023/02/09 01:30:00;;;;;;;20.10;7.60;;;;;;;;;;109961;1284;22159;-76
2023/02/09 01:32:27;;;;;;;19.70;8.30;;;;;;;;;;109958;1284;22898;-77
2023/02/09 01:34:55;;;;;;;21.50;7.90;;;;;;;;;;109971;1277;22862;-76
2023/02/09 01:37:22;;;;;;;19.90;7.90;;;;;;;;;;109940;1260;22237;-76
2023/02/09 01:39:49;;;;;;;19.90;6.90;;;;;;;;;;109897;1284;23018;-76
2023/02/09 01:42:17;;;;;;;18.10;7.00;;;;;;;;;;109940;1284;22921;-75
2023/02/09 01:44:43;;;;;;;18.40;7.80;;;;;;;;;;109955;1284;22153;-76
2023/02/09 01:47:21;;;;;;;18.60;7.50;;;;;;;;;;109921;1283;23025;-77
2023/02/09 01:49:49;;;;;;;17.00;7.40;;;;;;;;;;110063;1264;23000;-76
2023/02/09 01:52:20;;;;;;;18.60;7.20;;;;;;;;;;109954;1284;22188;-76
2023/02/09 01:54:50;;;;;;;18.70;6.80;;;;;;;;;;110183;1278;22942;-78
2023/02/09 01:57:26;;;;;;;20.20;7.40;;;;;;;;;;110296;1278;22139;-76
2023/02/09 01:59:56;;;;;;;18.40;7.30;;;;;;;;;;110705;1254;22172;-76
2023/02/09 02:02:28;;;;;;;19.80;7.20;;;;;;;;;;110378;1278;22128;-75
2023/02/09 02:04:55;;;;;;;18.60;7.80;;;;;;;;;;110277;1278;22183;-76
2023/02/09 02:07:43;;;;;;;20.10;7.20;;;;;;;;;;110369;1278;22264;-76
2023/02/09 02:10:10;;;;;;;19.10;7.40;;;;;;;;;;110270;1258;22308;-76
2023/02/09 02:12:37;;;;;;;17.80;6.80;;;;;;;;;;110292;1278;22806;-75
2023/02/09 02:15:04;;;;;;;18.50;7.10;;;;;;;;;;110365;1278;22130;-77
2023/02/09 02:21:34;;;;;;;16.50;6.60;;;;;;;;;;109990;1264;22160;-76
2023/02/09 02:24:16;;;;;;;18.70;7.10;;;;;;;;;;109906;1284;22176;-76
2023/02/09 02:26:47;;;;;;;19.70;7.20;;;;;;;;;;109968;1284;22174;-76
2023/02/09 02:29:20;;;;;;;19.30;7.00;;;;;;;;;;109855;1285;22167;-76
2023/02/09 02:32:11;;;;;;;18.10;7.10;;;;;;;;;;109925;1266;22145;-76
2023/02/09 02:34:37;;;;;;;19.30;7.10;;;;;;;;;;109937;1284;22947;-76
2023/02/09 02:37:10;;;;;;;20.90;7.50;;;;;;;;;;109954;1284;22185;-76
2023/02/09 02:39:39;;;;;;;17.30;6.50;;;;;;;;;;109939;1284;22827;-76
2023/02/09 02:45:16;;;;;;;16.40;6.50;;;;;;;;;;109886;1284;22003;-76
2023/02/09 02:47:51;;;;;;;18.00;7.00;;;;;;;;;;109815;1284;22835;-76
2023/02/09 02:50:21;;;;;;;20.60;7.10;;;;;;;;;;109931;1262;22306;-76
2023/02/09 02:52:49;;;;;;;19.80;7.60;;;;;;;;;;109949;1284;22236;-76
2023/02/09 02:55:17;;;;;;;17.60;7.10;;;;;;;;;;110121;1279;22869;-76
2023/02/09 02:57:48;;;;;;;16.30;6.90;;;;;;;;;;110144;1279;22146;-75
2023/02/09 03:00:15;;;;;;;21.50;7.60;;;;;;;;;;110132;1279;22469;-76
2023/02/09 03:02:52;;;;;;;15.10;6.50;;;;;;;;;;110148;1259;22109;-76
2023/02/09 03:05:21;;;;;;;17.10;7.20;;;;;;;;;;110107;1279;22195;-76
2023/02/09 03:07:48;;;;;;;15.50;6.60;;;;;;;;;;110159;1279;23133;-76
2023/02/09 03:10:23;;;;;;;19.60;6.70;;;;;;;;;;110136;1279;22973;-76
2023/02/09 03:12:54;;;;;;;16.60;6.70;;;;;;;;;;110477;1257;22145;-76
2023/02/09 03:15:28;;;;;;;19.20;7.00;;;;;;;;;;110200;1279;22830;-77
2023/02/09 03:18:19;;;;;;;16.10;6.80;;;;;;;;;;110167;1279;22123;-76
2023/02/09 03:20:57;;;;;;;16.40;6.50;;;;;;;;;;110107;1279;22349;-76
2023/02/09 03:23:47;;;;;;;16.00;6.20;;;;;;;;;;110155;1260;22152;-77
2023/02/09 03:26:19;;;;;;;17.60;6.00;;;;;;;;;;110197;1279;22133;-76
2023/02/09 03:28:49;;;;;;;17.30;6.60;;;;;;;;;;110099;1279;22157;-76
2023/02/09 03:31:17;;;;;;;18.30;7.40;;;;;;;;;;110055;1256;22104;-76
2023/02/09 03:40:57;;;;;;;21.60;7.70;;;;;;;;;;109930;1285;22266;-76
2023/02/09 03:44:25;;;;;;;21.10;7.80;;;;;;;;;;110095;1262;22175;-76
2023/02/09 03:46:10;;;;;;;18.60;7.30;;;;;;;;;;109905;1285;22147;-76
2023/02/09 03:48:37;;;;;;;17.30;6.50;;;;;;;;;;109865;1285;22157;-77
2023/02/09 03:51:05;;;;;;;18.80;7.40;;;;;;;;;;109879;1285;22159;-76
2023/02/09 03:53:33;;;;;;;21.30;7.50;;;;;;;;;;110018;1267;22218;-82
2023/02/09 03:56:08;;;;;;;21.70;7.40;;;;;;;;;;109890;1285;22155;-76
2023/02/09 03:58:37;;;;;;;22.40;7.60;;;;;;;;;;109885;1285;22043;-76
2023/02/09 04:01:09;;;;;;;19.10;7.00;;;;;;;;;;109904;1285;23019;-76
2023/02/09 04:03:39;;;;;;;17.60;7.40;;;;;;;;;;110047;1266;22183;-77
2023/02/09 04:06:06;;;;;;;17.80;7.30;;;;;;;;;;109852;1285;21766;-76
2023/02/09 04:09:04;;;;;;;;;;;;;;;;;;;;;
2023/02/09 04:12:09;;;;;;;17.50;7.40;;;;;;;;;;109688;1265;22933;-76
2023/02/09 04:14:35;;;;;;;18.20;7.40;;;;;;;;;;109824;1284;22958;-76
2023/02/09 04:17:02;;;;;;;20.10;8.10;;;;;;;;;;109968;1284;22313;-76
2023/02/09 04:19:29;;;;;;;18.00;8.40;;;;;;;;;;109966;1284;22326;-76
2023/02/09 04:21:56;;;;;;;24.00;8.10;;;;;;;;;;109968;1283;22173;-76
2023/02/09 04:24:28;;;;;;;18.50;7.70;;;;;;;;;;109942;1261;22104;-76
2023/02/09 04:26:55;;;;;;;17.10;7.70;;;;;;;;;;109950;1284;22171;-77
2023/02/09 04:29:22;;;;;;;18.60;7.80;;;;;;;;;;109908;1284;22175;-76
2023/02/09 04:31:49;;;;;;;17.60;7.60;;;;;;;;;;109926;1284;22171;-76
2023/02/09 04:34:26;;;;;;;;;;;;;;;;;;;;;
2023/02/09 04:41:20;;;;;;;18.40;7.40;;;;;;;;;;110226;1277;22759;-76
2023/02/09 04:43:47;;;;;;;21.40;8.30;;;;;;;;;;110301;1259;22189;-76
2023/02/09 04:46:15;;;;;;;20.30;8.70;;;;;;;;;;110112;1273;22158;-76
2023/02/09 04:48:43;;;;;;;18.70;7.90;;;;;;;;;;110100;1279;23181;-76
2023/02/09 04:51:10;;;;;;;19.00;7.50;;;;;;;;;;110116;1279;22129;-76
2023/02/09 04:53:37;;;;;;;19.00;8.10;;;;;;;;;;110217;1260;22128;-76
2023/02/09 04:56:05;;;;;;;20.20;7.70;;;;;;;;;;110444;1277;22817;-77
2023/02/09 05:05:38;;;;;;;25.90;8.10;;;;;;;;;;109948;1265;22180;-77
2023/02/09 05:08:05;;;;;;;21.20;8.10;;;;;;;;;;109952;1284;22193;-77
2023/02/09 05:10:32;;;;;;;22.20;8.60;;;;;;;;;;109938;1284;22174;-78
2023/02/09 05:12:59;;;;;;;25.00;8.80;;;;;;;;;;109947;1284;22192;-77
2023/02/09 05:15:29;;;;;;;25.00;9.30;;;;;;;;;;110102;1262;22906;-77
2023/02/09 05:18:06;;;;;;;23.20;8.70;;;;;;;;;;109956;1284;22191;-77
2023/02/09 05:20:35;;;;;;;24.00;9.20;;;;;;;;;;109945;1284;22054;-77
2023/02/09 05:23:05;;;;;;;34.00;10.40;;;;;;;;;;109939;1284;22907;-78
2023/02/09 05:25:40;;;;;;;25.30;9.60;;;;;;;;;;109998;1262;22266;-83
2023/02/09 05:28:07;;;;;;;29.10;10.70;;;;;;;;;;109941;1285;22130;-77
2023/02/09 05:30:36;;;;;;;25.80;9.90;;;;;;;;;;109920;1285;22778;-78
2023/02/09 05:33:04;;;;;;;28.60;10.10;;;;;;;;;;109944;1285;22460;-77
2023/02/09 05:35:31;;;;;;;23.30;9.50;;;;;;;;;;110068;1262;22174;-78
2023/02/09 05:37:59;;;;;;;20.20;8.10;;;;;;;;;;109976;1278;22114;-77
2023/02/09 05:40:26;;;;;;;20.80;8.60;;;;;;;;;;110161;1280;22136;-77
2023/02/09 05:42:54;;;;;;;21.80;9.00;;;;;;;;;;110142;1280;22761;-78
2023/02/09 05:45:22;;;;;;;21.80;10.30;;;;;;;;;;110274;1260;22131;-77
2023/02/09 05:48:09;;;;;;;21.40;9.00;;;;;;;;;;108456;1279;2213156;-77
2023/02/09 05:50:37;;;;;;;23.50;7.90;;;;;;;;;;110148;1274;22749;-78
2023/02/09 05:53:08;;;;;;;20.50;8.20;;;;;;;;;;110184;1280;22781;-77
2023/02/09 05:55:36;;;;;;;22.20;9.00;;;;;;;;;;110314;1259;22342;-77
2023/02/09 05:58:04;;;;;;;21.40;9.40;;;;;;;;;;110169;1279;22129;-77
2023/02/09 06:00:32;;;;;;;25.20;10.90;;;;;;;;;;110193;1280;22188;-77
2023/02/09 06:03:01;;;;;;;23.10;9.40;;;;;;;;;;110200;1279;22144;-77
2023/02/09 06:05:29;;;;;;;26.20;10.40;;;;;;;;;;110095;1259;22124;-77
2023/02/09 06:07:57;;;;;;;23.20;8.90;;;;;;;;;;110137;1279;22776;-77
2023/02/09 06:10:24;;;;;;;22.00;9.20;;;;;;;;;;110183;1280;22176;-77
2023/02/09 06:12:52;;;;;;;25.80;10.60;;;;;;;;;;110133;1279;22155;-77
2023/02/09 06:15:20;;;;;;;23.40;8.90;;;;;;;;;;110190;1262;22145;-77
2023/02/09 06:17:48;;;;;;;26.10;9.90;;;;;;;;;;110138;1279;22110;-77
2023/02/09 06:20:16;;;;;;;27.00;10.90;;;;;;;;;;110182;1280;22502;-77
2023/02/09 06:22:43;;;;;;;25.40;10.30;;;;;;;;;;110201;1280;22544;-77
2023/02/09 06:25:11;;;;;;;23.20;9.80;;;;;;;;;;110176;1256;22818;-77
2023/02/09 06:27:39;;;;;;;21.30;8.90;;;;;;;;;;110176;1280;22145;-77
2023/02/09 06:30:07;;;;;;;23.10;9.00;;;;;;;;;;110123;1280;22161;-77
2023/02/09 06:32:36;;;;;;;20.30;8.00;;;;;;;;;;110121;1280;21988;-77
2023/02/09 06:35:06;;;;;;;22.90;8.90;;;;;;;;;;110129;1280;22163;-77
2023/02/09 06:37:35;;;;;;;22.60;8.90;;;;;;;;;;110495;1260;23016;-77
2023/02/09 06:40:04;;;;;;;24.70;9.40;;;;;;;;;;110150;1278;21768;-77
2023/02/09 06:42:45;;;;;;;24.50;8.40;;;;;;;;;;110347;1279;22130;-77
2023/02/09 06:45:16;;;;;;;27.00;8.90;;;;;;;;;;110202;1278;22222;-77
2023/02/09 06:47:44;;;;;;;30.10;9.50;;;;;;;;;;110528;1256;22407;-77
2023/02/09 06:50:16;;;;;;;29.90;10.60;;;;;;;;;;110350;1278;22105;-77
2023/02/09 06:52:45;;;;;;;30.70;9.70;;;;;;;;;;110198;1278;22152;-77
2023/02/09 06:55:18;;;;;;;26.90;9.60;;;;;;;;;;110342;1278;22921;-77
2023/02/09 06:57:47;;;;;;;22.70;8.60;;;;;;;;;;110519;1259;22035;-80
2023/02/09 07:00:17;;;;;;;23.80;8.30;;;;;;;;;;110320;1278;22867;-77
2023/02/09 07:02:45;;;;;;;22.40;8.30;;;;;;;;;;110325;1278;22117;-79
2023/02/09 07:05:15;;;;;;;20.90;8.50;;;;;;;;;;110345;1256;22129;-80
2023/02/09 07:07:43;;;;;;;20.40;8.00;;;;;;;;;;110521;1256;22151;-81
2023/02/09 07:10:14;;;;;;;25.00;8.90;;;;;;;;;;110350;1278;22112;-79
2023/02/09 07:12:43;;;;;;;24.90;9.00;;;;;;;;;;110204;1278;22690;-79
2023/02/09 07:15:13;;;;;;;27.00;10.50;;;;;;;;;;110322;1278;22822;-79
2023/02/09 07:17:41;;;;;;;23.70;10.10;;;;;;;;;;110496;1256;22223;-80
2023/02/09 07:20:12;;;;;;;23.60;9.80;;;;;;;;;;110196;1278;22128;-80
2023/02/09 07:22:45;;;;;;;23.40;9.20;;;;;;;;;;110242;1278;22389;-79
2023/02/09 07:25:14;;;;;;;21.80;8.90;;;;;;;;;;110334;1278;22292;-80
2023/02/09 07:36:29;;;;;;;21.60;9.70;;;;;;;;;;103883;1295;545132;-78
2023/02/09 07:39:01;;;;;;;19.00;8.20;;;;;;;;;;106343;1287;22627;-78
2023/02/09 07:41:34;;;;;;;24.00;9.40;;;;;;;;;;106363;1287;22553;-80
2023/02/09 07:44:23;;;;;;;21.60;9.00;;;;;;;;;;106374;1287;22618;-79
2023/02/09 07:47:21;;;;;;;;;;;;;;;;;;;;;
2023/02/09 07:50:11;;;;;;;26.90;7.90;;;;;;;;;;102457;1284;5380168;-82
2023/02/09 07:52:38;;;;;;;23.70;8.90;;;;;;;;;;106416;1285;23930;-83
2023/02/09 07:55:15;;;;;;;;;;;;;;;;;;;;;
2023/02/09 07:58:11;;;;;;;20.10;8.80;;;;;;;;;;106480;1266;25588;-79
2023/02/09 08:00:58;;;;;;;19.20;8.00;;;;;;;;;;106387;1285;22540;-82
2023/02/09 08:03:28;;;;;;;20.20;8.40;;;;;;;;;;106388;1285;22553;-81
2023/02/09 08:06:21;;;;;;;23.30;8.60;;;;;;;;;;106377;1263;22536;-81
2023/02/09 08:08:51;;;;;;;27.20;8.50;;;;;;;;;;106464;1285;25352;-83
2023/02/09 08:11:30;;;;;;;20.30;8.70;;;;;;;;;;106390;1285;25395;-81
2023/02/09 08:14:06;;;;;;;19.90;8.50;;;;;;;;;;106326;1285;25851;-83
2023/02/09 08:17:18;;;;;;;21.10;8.20;;;;;;;;;;106381;1266;22555;-79
2023/02/09 08:20:26;;;;;;;20.50;8.20;;;;;;;;;;105852;1290;22543;-80
2023/02/09 08:22:54;;;;;;;20.20;8.20;;;;;;;;;;105735;1290;22545;-79
2023/02/09 08:25:24;;;;;;;18.30;7.50;;;;;;;;;;105934;1290;25641;-83
2023/02/09 08:27:54;;;;;;;19.10;8.40;;;;;;;;;;105934;1290;25370;-82
2023/02/09 08:30:46;;;;;;;16.40;6.70;;;;;;;;;;105932;1291;22685;-84
2023/02/09 08:33:23;;;;;;;22.00;8.10;;;;;;;;;;105892;1290;22583;-83
2023/02/09 08:35:53;;;;;;;22.30;7.70;;;;;;;;;;105875;1272;22566;-85
2023/02/09 08:38:23;;;;;;;21.40;6.10;;;;;;;;;;105894;1272;25350;-84
2023/02/09 08:41:04;;;;;;;;;;;;;;;;;;;;;
2023/02/09 08:44:06;;;;;;;19.00;6.90;;;;;;;;;;105895;1291;22819;-80
2023/02/09 08:46:36;;;;;;;20.40;7.00;;;;;;;;;;105946;1291;24526;-78
2023/02/09 08:49:06;;;;;;;25.90;7.60;;;;;;;;;;105903;1272;25494;-81
2023/02/09 08:54:27;;;;;;;22.40;7.20;;;;;;;;;;106388;1286;22540;-82
2023/02/09 08:57:14;;;;;;;22.80;7.00;;;;;;;;;;107089;1257;25357;-80
2023/02/09 08:59:44;;;;;;;21.20;6.50;;;;;;;;;;107084;1274;25349;-82
2023/02/09 09:02:36;;;;;;;17.70;6.30;;;;;;;;;;107011;1274;22527;-77
2023/02/09 09:05:11;;;;;;;21.70;7.10;;;;;;;;;;106969;1274;22531;-80
2023/02/09 09:07:58;;;;;;;21.30;6.50;;;;;;;;;;106983;1267;22536;-82
2023/02/09 09:10:51;;;;;;;17.70;5.90;;;;;;;;;;107165;1274;22993;-85
2023/02/09 09:13:50;;;;;;;18.90;6.40;;;;;;;;;;107143;1272;22642;-80
2023/02/09 09:16:39;;;;;;;;;;;;;;;;;;;;;
2023/02/09 09:19:21;;;;;;;22.10;7.10;;;;;;;;;;107215;1264;23008;-82
2023/02/09 09:22:22;;;;;;;18.60;6.30;;;;;;;;;;107144;1274;24191;-82
2023/02/09 09:25:30;;;;;;;16.00;6.20;;;;;;;;;;107096;1274;24272;-80
2023/02/09 09:28:19;;;;;;;17.20;6.70;;;;;;;;;;107143;1274;24188;-84
2023/02/09 09:30:47;;;;;;;21.10;6.80;;;;;;;;;;107161;1274;22539;-85
2023/02/09 09:33:23;;;;;;;17.10;6.30;;;;;;;;;;107163;1274;23007;-82
2023/02/09 09:36:02;;;;;;;16.10;6.10;;;;;;;;;;107061;1274;22533;-86
2023/02/09 09:38:53;;;;;;;17.20;6.50;;;;;;;;;;107117;1256;22526;-84
2023/02/09 09:41:35;;;;;;;15.20;6.10;;;;;;;;;;107173;1274;25324;-83
2023/02/09 09:44:15;;;;;;;19.00;6.40;;;;;;;;;;107165;1274;22531;-85
2023/02/09 09:46:47;;;;;;;16.00;6.00;;;;;;;;;;107177;1274;22548;-87
2023/02/09 09:50:12;;;;;;;;;;;;;;;;;;;;;
2023/02/09 09:53:22;;;;;;;21.70;7.50;;;;;;;;;;106800;1280;24771;-80
2023/02/09 09:55:54;;;;;;;14.80;6.20;;;;;;;;;;106711;1280;22539;-85
2023/02/09 09:58:26;;;;;;;19.30;6.90;;;;;;;;;;106608;1257;22564;-82
2023/02/09 10:00:53;;;;;;;18.10;6.20;;;;;;;;;;106594;1281;23907;-86
2023/02/09 10:06:37;;;;;;;16.20;7.00;;;;;;;;;;106644;1280;22536;-81
2023/02/09 10:09:21;;;;;;;;;;;;;;;;;;;;;
2023/02/09 10:12:47;;;;;;;;;;;;;;;;;;;;;
2023/02/09 10:15:29;;;;;;;16.30;6.00;;;;;;;;;;106744;1280;22543;-82
2023/02/09 10:18:16;;;;;;;16.60;6.20;;;;;;;;;;106745;1280;25465;-86
2023/02/09 10:21:09;;;;;;;21.70;7.40;;;;;;;;;;106718;1263;22505;-87
2023/02/09 10:25:05;;;;;;;20.40;7.90;;;;;;;;;;106728;1280;22543;-81
2023/02/09 10:27:32;;;;;;;16.50;7.50;;;;;;;;;;106716;1280;25360;-80
2023/02/09 10:30:19;;;;;;;16.50;6.90;;;;;;;;;;106771;1264;24269;-86
2023/02/09 10:32:49;;;;;;;17.00;6.50;;;;;;;;;;106944;1276;22545;-82
2023/02/09 10:35:35;;;;;;;16.70;6.70;;;;;;;;;;106937;1276;25339;-83
2023/02/09 10:38:05;;;;;;;15.80;6.40;;;;;;;;;;106898;1276;25240;-82
2023/02/09 10:40:35;;;;;;;14.80;6.20;;;;;;;;;;106905;1274;22556;-85
2023/02/09 10:43:09;;;;;;;18.00;6.90;;;;;;;;;;107129;1267;25373;-79
2023/02/09 10:45:59;;;;;;;16.70;7.10;;;;;;;;;;107238;1274;24213;-84
2023/02/09 10:48:39;;;;;;;17.70;6.80;;;;;;;;;;106914;1251;24209;-79
2023/02/09 10:51:32;;;;;;;14.60;6.10;;;;;;;;;;107106;1254;22533;-82
2023/02/09 10:54:18;;;;;;;16.30;6.40;;;;;;;;;;107144;1270;22530;-81
2023/02/09 10:57:00;;;;;;;17.40;7.10;;;;;;;;;;107347;1274;25353;-80
2023/02/09 10:59:35;;;;;;;19.30;7.50;;;;;;;;;;107198;1275;25120;-82
2023/02/09 11:02:33;;;;;;;19.40;7.60;;;;;;;;;;106970;1275;22555;-83
2023/02/09 11:05:24;;;;;;;18.20;7.40;;;;;;;;;;107091;1274;22856;-80
2023/02/09 11:07:57;;;;;;;18.30;7.70;;;;;;;;;;107164;1274;24225;-85
2023/02/09 11:10:31;;;;;;;19.00;8.90;;;;;;;;;;107198;1257;25336;-79
2023/02/09 11:13:20;;;;;;;21.70;7.50;;;;;;;;;;107154;1274;22533;-83
2023/02/09 11:16:02;;;;;;;36.70;7.70;;;;;;;;;;107114;1274;24224;-80
2023/02/09 11:18:34;;;;;;;20.10;6.30;;;;;;;;;;107182;1274;24221;-82
2023/02/09 11:21:23;;;;;;;17.90;7.50;;;;;;;;;;107061;1258;22649;-84
2023/02/09 11:24:33;;;;;;;18.00;7.10;;;;;;;;;;107130;1274;22539;-82
2023/02/09 11:27:23;;;;;;;26.40;8.50;;;;;;;;;;106727;1280;24263;-77
2023/02/09 11:30:21;;;;;;;20.70;7.30;;;;;;;;;;106651;1280;22538;-79
2023/02/09 11:33:05;;;;;;;36.00;8.80;;;;;;;;;;106779;1266;24303;-84
2023/02/09 11:35:57;;;;;;;30.30;7.70;;;;;;;;;;106747;1280;25570;-80
2023/02/09 11:38:42;;;;;;;33.60;7.60;;;;;;;;;;106753;1280;23882;-81
2023/02/09 11:44:13;;;;;;;22.00;7.70;;;;;;;;;;106522;1281;22532;-84
2023/02/09 11:47:00;;;;;;;19.90;7.60;;;;;;;;;;106427;1281;22838;-82
2023/02/09 11:49:28;;;;;;;18.20;7.70;;;;;;;;;;106688;1273;22530;-78
2023/02/09 11:51:58;;;;;;;21.60;7.00;;;;;;;;;;106515;1264;22819;-80
2023/02/09 11:54:38;;;;;;;21.00;8.60;;;;;;;;;;106711;1273;22696;-78
2023/02/09 11:57:17;;;;;;;20.40;8.30;;;;;;;;;;106712;1275;25278;-79
2023/02/09 11:59:55;;;;;;;23.60;8.90;;;;;;;;;;107334;1267;22543;-79
2023/02/09 12:02:46;;;;;;;23.50;8.20;;;;;;;;;;107174;1256;25745;-82
2023/02/09 12:05:20;;;;;;;22.10;8.20;;;;;;;;;;107133;1274;25344;-81
2023/02/09 12:08:05;;;;;;;22.60;9.10;;;;;;;;;;107193;1270;22579;-80
2023/02/09 12:10:38;;;;;;;21.20;9.70;;;;;;;;;;107153;1273;22628;-78
2023/02/09 12:13:44;;;;;;;25.80;9.30;;;;;;;;;;107012;1251;24190;-79
2023/02/09 12:19:56;;;;;;;25.50;9.50;;;;;;;;;;106674;1273;22646;-81
2023/02/09 12:22:32;;;;;;;23.40;10.50;;;;;;;;;;106697;1276;25393;-83
2023/02/09 12:25:35;;;;;;;36.10;8.70;;;;;;;;;;106618;1280;22563;-80
2023/02/09 12:36:57;;;;;;;17.40;7.70;;;;;;;;;;103836;1295;544814;-81
2023/02/09 12:39:25;;;;;;;20.70;7.80;;;;;;;;;;106230;1287;25243;-82
2023/02/09 12:41:55;;;;;;;31.10;8.70;;;;;;;;;;106368;1287;22640;-79
2023/02/09 12:44:21;;;;;;;26.10;8.00;;;;;;;;;;106306;1287;22809;-85
2023/02/09 12:46:51;;;;;;;18.80;8.10;;;;;;;;;;106201;1270;24368;-81
2023/02/09 12:49:26;;;;;;;35.60;9.20;;;;;;;;;;105131;1278;2269207;-86
2023/02/09 12:51:56;;;;;;;25.30;8.70;;;;;;;;;;106867;1278;22656;-85
2023/02/09 12:54:26;;;;;;;20.50;8.80;;;;;;;;;;106871;1278;25412;-85
2023/02/09 12:56:56;;;;;;;23.00;8.30;;;;;;;;;;106898;1260;23889;-81
2023/02/09 12:59:24;;;;;;;35.20;9.10;;;;;;;;;;106822;1278;24252;-78
2023/02/09 13:02:10;;;;;;;26.40;8.60;;;;;;;;;;106899;1278;24256;-80
2023/02/09 13:04:58;;;;;;;18.00;8.40;;;;;;;;;;106813;1278;24295;-82
2023/02/09 13:07:51;;;;;;;17.70;9.60;;;;;;;;;;106817;1278;24390;-80
2023/02/09 13:10:40;;;;;;;15.50;8.10;;;;;;;;;;106866;1278;22502;-81
2023/02/09 13:13:15;;;;;;;26.60;9.20;;;;;;;;;;106815;1278;22548;-86
2023/02/09 13:15:47;;;;;;;27.70;8.90;;;;;;;;;;106826;1278;24411;-83
2023/02/09 13:18:38;;;;;;;16.10;7.80;;;;;;;;;;106924;1256;22533;-81
2023/02/09 13:21:34;;;;;;;18.50;8.60;;;;;;;;;;106845;1278;22537;-80
2023/02/09 13:24:22;;;;;;;19.60;9.40;;;;;;;;;;106810;1277;24772;-81
2023/02/09 13:26:56;;;;;;;18.50;9.10;;;;;;;;;;106929;1278;24242;-85
2023/02/09 13:29:27;;;;;;;23.30;9.30;;;;;;;;;;106851;1278;22659;-83
2023/02/09 13:32:35;;;;;;;22.70;9.20;;;;;;;;;;106864;1278;24343;-85
2023/02/09 13:35:22;;;;;;;18.40;8.80;;;;;;;;;;106866;1278;24260;-83
2023/02/09 13:37:54;;;;;;;18.70;9.70;;;;;;;;;;107002;1270;22509;-80
2023/02/09 13:40:35;;;;;;;24.30;9.80;;;;;;;;;;106846;1278;22541;-79
2023/02/09 13:43:16;;;;;;;20.40;10.20;;;;;;;;;;106807;1278;22543;-86
2023/02/09 13:45:50;;;;;;;22.10;10.50;;;;;;;;;;106961;1278;22537;-83
2023/02/09 13:48:46;;;;;;;21.40;10.00;;;;;;;;;;106809;1270;22534;-84
2023/02/09 13:51:28;;;;;;;21.50;10.10;;;;;;;;;;106896;1279;22543;-84
2023/02/09 13:53:59;;;;;;;20.50;9.80;;;;;;;;;;106968;1273;24192;-84
2023/02/09 13:56:32;;;;;;;19.30;9.60;;;;;;;;;;106804;1274;22527;-83
2023/02/09 13:59:00;;;;;;;22.80;10.70;;;;;;;;;;106832;1261;25216;-81
2023/02/09 14:01:29;;;;;;;17.50;9.50;;;;;;;;;;106913;1276;22530;-80
2023/02/09 14:04:01;;;;;;;20.30;9.90;;;;;;;;;;106885;1273;24635;-81
2023/02/09 14:06:46;;;;;;;21.10;9.70;;;;;;;;;;106714;1272;22612;-79
2023/02/09 14:09:19;;;;;;;24.80;10.40;;;;;;;;;;106818;1261;26402;-77
2023/02/09 14:11:50;;;;;;;19.30;9.50;;;;;;;;;;106711;1279;22994;-79
2023/02/09 14:17:37;;;;;;;18.80;9.30;;;;;;;;;;107126;1275;22553;-78
2023/02/09 14:20:18;;;;;;;19.40;10.10;;;;;;;;;;107155;1251;24340;-80
2023/02/09 14:23:18;;;;;;;21.40;10.40;;;;;;;;;;106953;1275;24256;-84
2023/02/09 14:26:00;;;;;;;19.70;10.10;;;;;;;;;;107742;1267;25243;-78
2023/02/09 14:28:27;;;;;;;21.80;10.40;;;;;;;;;;107177;1254;22537;-80
2023/02/09 14:31:14;;;;;;;21.10;9.60;;;;;;;;;;107039;1275;22511;-79
2023/02/09 14:33:47;;;;;;;21.20;9.30;;;;;;;;;;107151;1275;25078;-80
2023/02/09 14:36:21;;;;;;;20.80;9.60;;;;;;;;;;107097;1270;23632;-80
2023/02/09 14:39:04;;;;;;;20.90;9.50;;;;;;;;;;107258;1272;25318;-81
2023/02/09 14:41:59;;;;;;;20.80;9.20;;;;;;;;;;106935;1270;22537;-80
2023/02/09 14:44:44;;;;;;;21.50;9.80;;;;;;;;;;107098;1267;22648;-80
2023/02/09 14:47:28;;;;;;;21.50;9.20;;;;;;;;;;106808;1257;24442;-78
2023/02/09 14:50:05;;;;;;;22.80;10.00;;;;;;;;;;106960;1257;24419;-81
2023/02/09 14:52:42;;;;;;;22.10;9.90;;;;;;;;;;106801;1274;25482;-81
2023/02/09 14:55:26;;;;;;;20.40;9.40;;;;;;;;;;107087;1276;22745;-79
2023/02/09 14:59:15;;;;;;;18.60;7.90;;;;;;;;;;107402;1254;25509;-78
2023/02/09 15:01:31;;;;;;;23.00;9.10;;;;;;;;;;106781;1276;25524;-81
2023/02/09 15:04:10;;;;;;;21.90;9.40;;;;;;;;;;106744;1276;25353;-80
2023/02/09 15:06:53;;;;;;;20.30;9.30;;;;;;;;;;106856;1276;26688;-82
2023/02/09 15:09:28;;;;;;;20.20;8.70;;;;;;;;;;106910;1258;22776;-78
2023/02/09 15:12:32;;;;;;;20.70;8.80;;;;;;;;;;106893;1276;24316;-80
2023/02/09 15:15:12;;;;;;;22.80;9.80;;;;;;;;;;106737;1276;25232;-79
2023/02/09 15:17:50;;;;;;;23.00;9.60;;;;;;;;;;106765;1276;25546;-78
2023/02/09 15:20:37;;;;;;;23.60;9.70;;;;;;;;;;106819;1269;25346;-80
2023/02/09 15:23:25;;;;;;;23.60;9.00;;;;;;;;;;107021;1270;22542;-85
2023/02/09 15:26:15;;;;;;;18.90;7.70;;;;;;;;;;107009;1275;22560;-80
2023/02/09 15:28:42;;;;;;;23.70;10.00;;;;;;;;;;106765;1276;22599;-77
2023/02/09 15:31:33;;;;;;;25.60;9.50;;;;;;;;;;106751;1276;25390;-77
2023/02/09 15:34:20;;;;;;;25.10;8.70;;;;;;;;;;106827;1276;22537;-79
2023/02/09 15:36:47;;;;;;;20.50;8.30;;;;;;;;;;107088;1276;24257;-75
2023/02/09 15:39:43;;;;;;;17.90;7.50;;;;;;;;;;106859;1270;22534;-79
2023/02/09 15:48:27;;;;;;;17.60;7.70;;;;;;;;;;107047;1276;25278;-80
2023/02/09 15:50:57;;;;;;;16.60;7.60;;;;;;;;;;107039;1276;22556;-82
2023/02/09 15:53:32;;;;;;;24.60;10.30;;;;;;;;;;106984;1263;24346;-84
2023/02/09 15:56:07;;;;;;;23.30;8.60;;;;;;;;;;106882;1276;24244;-80
2023/02/09 15:58:49;;;;;;;;;;;;;;;;;;;;;
2023/02/09 16:01:26;;;;;;;23.00;10.50;;;;;;;;;;106816;1253;24313;-81
2023/02/09 16:04:04;;;;;;;24.90;10.50;;;;;;;;;;106977;1276;24207;-79
2023/02/09 16:07:01;;;;;;;24.20;10.20;;;;;;;;;;106858;1276;25233;-78
2023/02/09 16:09:31;;;;;;;24.20;9.90;;;;;;;;;;107037;1254;24244;-79
2023/02/09 16:12:10;;;;;;;23.10;9.10;;;;;;;;;;107070;1272;23898;-81
2023/02/09 16:14:59;;;;;;;20.40;8.60;;;;;;;;;;107104;1273;23870;-79
2023/02/09 16:17:28;;;;;;;24.70;10.70;;;;;;;;;;107222;1270;22653;-78
2023/02/09 16:20:22;;;;;;;24.90;10.00;;;;;;;;;;107072;1257;23869;-83
2023/02/09 16:23:00;;;;;;;25.50;9.00;;;;;;;;;;107266;1271;25240;-78
2023/02/09 16:25:53;;;;;;;22.80;9.40;;;;;;;;;;107177;1267;24216;-78
2023/02/09 16:28:30;;;;;;;26.50;10.20;;;;;;;;;;107101;1270;24349;-78
2023/02/09 16:31:06;;;;;;;23.30;9.10;;;;;;;;;;107228;1257;25390;-78
2023/02/09 16:33:50;;;;;;;24.70;8.50;;;;;;;;;;106982;1267;24256;-78
2023/02/09 16:36:58;;;;;;;24.90;8.70;;;;;;;;;;107077;1267;22549;-83